createdAt,value
2023-05-05T00:02:24.579Z,7.78
2023-05-05T00:05:28.244Z,7.35
2023-05-05T00:08:32.159Z,6.97
2023-05-05T00:11:35.655Z,7.93
2023-05-05T00:14:39.415Z,9.27
2023-05-05T00:17:42.780Z,8.07
2023-05-05T00:20:47.700Z,7.53
2023-05-05T00:23:52.245Z,7.93
2023-05-05T00:26:55.493Z,11.70
2023-05-05T00:29:59.061Z,8.20
2023-05-05T00:33:02.347Z,9.02
2023-05-05T00:36:06.167Z,9.90
2023-05-05T00:39:10.072Z,8.45
2023-05-05T00:42:13.656Z,7.33
2023-05-05T00:45:18.985Z,8.65
2023-05-05T00:48:24.621Z,9.05
2023-05-05T00:51:28.957Z,9.45
2023-05-05T00:54:34.620Z,9.03
2023-05-05T00:57:38.071Z,9.15
2023-05-05T01:00:42.049Z,9.73
2023-05-05T01:03:45.888Z,11.45
2023-05-05T01:07:04.383Z,8.60
2023-05-05T01:10:20.404Z,11.73
2023-05-05T01:13:47.664Z,14.10
2023-05-05T01:17:08.833Z,10.67
2023-05-05T01:20:29.331Z,11.60
2023-05-05T01:23:57.591Z,11.63
2023-05-05T01:27:29.175Z,12.57
2023-05-05T01:31:06.851Z,11.05
2023-05-05T01:34:13.698Z,11.48
2023-05-05T01:37:24.821Z,11.57
2023-05-05T01:40:32.184Z,13.65
2023-05-05T01:43:37.307Z,12.53
2023-05-05T01:46:40.950Z,14.18
2023-05-05T01:49:47.406Z,12.90
2023-05-05T01:52:52.726Z,11.12
2023-05-05T01:55:57.723Z,13.37
2023-05-05T01:59:02.549Z,12.63
2023-05-05T02:02:09.325Z,12.35
2023-05-05T02:05:14.414Z,14.27
2023-05-05T02:08:18.878Z,18.23
2023-05-05T02:11:23.526Z,16.52
2023-05-05T02:14:30.825Z,12.25
2023-05-05T02:17:34.600Z,15.02
2023-05-05T02:20:39.806Z,14.77
2023-05-05T02:23:43.976Z,13.88
2023-05-05T02:26:50.745Z,13.25
2023-05-05T02:30:01.591Z,13.98
2023-05-05T02:33:11.515Z,14.18
2023-05-05T02:36:21.973Z,16.23
2023-05-05T02:39:35.769Z,18.17
2023-05-05T02:42:46.697Z,14.57
2023-05-05T02:45:50.621Z,14.02
2023-05-05T02:48:55.037Z,15.70
2023-05-05T02:51:58.299Z,14.87
2023-05-05T02:55:03.355Z,16.27
2023-05-05T02:58:14.240Z,17.65
2023-05-05T03:02:03.581Z,17.45
2023-05-05T03:05:17.449Z,15.55
2023-05-05T03:08:30.387Z,21.83
2023-05-05T03:11:37.463Z,21.13
2023-05-05T03:14:45.639Z,16.12
2023-05-05T03:17:50.627Z,14.70
2023-05-05T03:20:54.848Z,26.42
2023-05-05T03:23:58.752Z,21.33
2023-05-05T03:27:03.212Z,15.65
2023-05-05T03:30:08.212Z,16.73
2023-05-05T03:33:12.742Z,19.60
2023-05-05T03:36:16.282Z,18.02
2023-05-05T03:39:21.475Z,17.52
2023-05-05T03:42:25.342Z,17.85
2023-05-05T03:45:29.573Z,17.83
2023-05-05T03:48:34.379Z,15.70
2023-05-05T03:51:38.365Z,17.20
2023-05-05T03:54:42.609Z,24.55
2023-05-05T03:57:46.261Z,15.97
2023-05-05T04:00:49.586Z,18.55
2023-05-05T04:03:54.204Z,16.67
2023-05-05T04:06:57.429Z,20.42
2023-05-05T04:10:01.090Z,15.50
2023-05-05T04:13:04.490Z,18.10
2023-05-05T04:16:09.151Z,12.43
2023-05-05T04:19:13.351Z,14.17
2023-05-05T04:22:17.171Z,11.05
2023-05-05T04:25:20.204Z,12.27
2023-05-05T04:28:24.321Z,11.23
2023-05-05T04:31:28.248Z,10.53
2023-05-05T04:34:32.482Z,12.18
2023-05-05T04:37:35.941Z,10.20
2023-05-05T04:40:43.116Z,11.60
2023-05-05T04:43:48.494Z,13.00
2023-05-05T04:46:54.305Z,9.95
2023-05-05T04:49:58.132Z,11.25
2023-05-05T04:53:02.209Z,9.20
2023-05-05T04:56:05.662Z,10.13
2023-05-05T04:59:09.042Z,10.07
2023-05-05T05:02:12.361Z,10.52
2023-05-05T05:05:15.868Z,11.18
2023-05-05T05:08:19.195Z,10.35
2023-05-05T05:11:22.614Z,9.77
2023-05-05T05:14:26.071Z,9.05
2023-05-05T05:17:30.597Z,9.23
2023-05-05T05:20:34.557Z,9.20
2023-05-05T05:23:39.358Z,11.93
2023-05-05T05:26:42.751Z,7.77
2023-05-05T05:29:46.333Z,8.10
2023-05-05T05:32:49.913Z,9.50
2023-05-05T05:35:53.870Z,8.82
2023-05-05T05:38:59.866Z,8.50
2023-05-05T05:42:05.140Z,7.63
2023-05-05T05:45:10.373Z,6.80
2023-05-05T05:48:14.369Z,8.07
2023-05-05T05:51:17.688Z,7.18
2023-05-05T05:54:21.694Z,8.52
2023-05-05T05:57:24.948Z,9.27
2023-05-05T06:00:28.693Z,7.10
2023-05-05T06:03:32.758Z,9.32
2023-05-05T06:06:35.905Z,6.65
2023-05-05T06:09:39.545Z,9.60
2023-05-05T06:12:42.846Z,8.63
2023-05-05T06:15:46.466Z,6.53
2023-05-05T06:18:50.016Z,10.30
2023-05-05T06:21:54.094Z,7.25
2023-05-05T06:24:57.672Z,8.40
2023-05-05T06:28:02.164Z,7.00
2023-05-05T06:31:05.367Z,8.53
2023-05-05T06:34:09.844Z,7.68
2023-05-05T06:37:13.054Z,9.50
2023-05-05T06:40:17.054Z,7.87
2023-05-05T06:43:20.127Z,7.53
2023-05-05T06:46:24.088Z,9.40
2023-05-05T06:49:27.761Z,8.00
2023-05-05T06:52:31.114Z,19.30
2023-05-05T06:55:34.397Z,7.72
2023-05-05T06:58:38.117Z,5.97
2023-05-05T07:01:41.532Z,10.60
2023-05-05T07:04:44.922Z,5.78
2023-05-05T07:07:55.513Z,11.63
2023-05-05T07:11:01.131Z,6.53
2023-05-05T07:14:04.213Z,7.93
2023-05-05T07:17:07.577Z,8.50
2023-05-05T07:20:12.208Z,8.00
2023-05-05T07:23:16.218Z,5.15
2023-05-05T07:26:19.353Z,7.57
2023-05-05T07:29:22.740Z,8.17
2023-05-05T07:32:26.316Z,6.47
2023-05-05T07:35:31.541Z,9.35
2023-05-05T07:38:34.700Z,7.40
2023-05-05T07:41:38.696Z,6.22
2023-05-05T07:44:41.822Z,8.60
2023-05-05T07:47:45.430Z,6.10
2023-05-05T07:50:48.794Z,7.62
2023-05-05T07:53:52.341Z,6.90
2023-05-05T07:56:55.790Z,11.15
2023-05-05T07:59:59.305Z,6.33
2023-05-05T08:03:02.491Z,7.90
2023-05-05T08:06:11.017Z,9.25
2023-05-05T08:09:14.376Z,5.65
2023-05-05T08:12:19.284Z,5.45
2023-05-05T08:15:22.538Z,6.77
2023-05-05T08:18:26.663Z,5.50
2023-05-05T08:21:29.908Z,6.28
2023-05-05T08:24:33.402Z,6.65
2023-05-05T08:27:36.421Z,8.32
2023-05-05T08:30:39.751Z,6.40
2023-05-05T08:33:43.590Z,6.03
2023-05-05T08:36:49.171Z,7.47
2023-05-05T08:39:52.487Z,6.47
2023-05-05T08:42:56.393Z,10.20
2023-05-05T08:46:00.032Z,6.13
2023-05-05T08:49:05.626Z,8.87
2023-05-05T08:52:11.789Z,10.93
2023-05-05T08:55:26.903Z,7.22
2023-05-05T08:58:32.096Z,12.73
2023-05-05T09:01:36.427Z,6.97
2023-05-05T09:04:40.407Z,8.70
2023-05-05T09:07:45.295Z,7.85
2023-05-05T09:10:51.161Z,9.90
2023-05-05T09:17:25.281Z,8.43
2023-05-05T09:20:37.135Z,9.33
2023-05-05T09:23:40.580Z,8.45
2023-05-05T09:26:46.814Z,7.15
2023-05-05T09:29:50.371Z,10.15
2023-05-05T09:32:55.104Z,8.47
2023-05-05T09:35:58.630Z,7.03
2023-05-05T09:39:06.516Z,11.38
2023-05-05T09:42:19.206Z,11.48
2023-05-05T09:45:23.877Z,9.40
2023-05-05T09:48:33.122Z,7.30
2023-05-05T09:51:36.579Z,6.43
2023-05-05T09:54:42.289Z,7.00
2023-05-05T09:57:49.072Z,7.15
2023-05-05T10:00:53.027Z,8.65
2023-05-05T10:03:57.605Z,17.73
2023-05-05T10:07:00.975Z,11.23
2023-05-05T10:10:06.125Z,7.62
2023-05-05T10:13:11.785Z,5.57
2023-05-05T10:16:18.499Z,10.15
2023-05-05T10:19:23.631Z,7.97
2023-05-05T10:22:30.563Z,7.03
2023-05-05T10:25:42.610Z,6.12
2023-05-05T10:28:55.232Z,5.43
2023-05-05T10:32:56.830Z,12.02
2023-05-05T10:36:06.712Z,5.50
2023-05-05T10:39:11.316Z,6.27
2023-05-05T10:42:15.858Z,6.90
2023-05-05T10:45:19.227Z,5.50
2023-05-05T10:48:34.720Z,5.68
2023-05-05T10:51:52.491Z,16.97
2023-05-05T10:55:21.282Z,6.10
2023-05-05T10:58:46.989Z,6.45
2023-05-05T11:01:58.642Z,7.30
2023-05-05T11:05:23.392Z,7.75
2023-05-05T11:08:28.385Z,7.20
2023-05-05T11:12:05.112Z,5.67
2023-05-05T11:15:24.370Z,7.68
2023-05-05T11:18:31.646Z,5.82
2023-05-05T11:22:01.789Z,7.05
2023-05-05T11:25:40.898Z,7.27
2023-05-05T11:29:02.199Z,8.37
2023-05-05T11:32:14.457Z,6.68
2023-05-05T11:35:18.099Z,8.25
2023-05-05T11:38:27.022Z,7.35
2023-05-05T11:41:36.434Z,6.30
2023-05-05T11:44:39.821Z,5.23
2023-05-05T11:47:43.440Z,8.23
2023-05-05T11:50:46.700Z,8.32
2023-05-05T11:53:51.574Z,6.37
2023-05-05T11:56:59.527Z,8.83
2023-05-05T12:00:06.557Z,5.80
2023-05-05T12:03:10.214Z,7.68
2023-05-05T12:06:14.013Z,15.73
2023-05-05T12:09:19.555Z,6.43
2023-05-05T12:12:55.479Z,8.10
2023-05-05T12:16:13.064Z,5.40
2023-05-05T12:19:16.260Z,7.43
2023-05-05T12:22:27.250Z,9.57
2023-05-05T12:25:40.461Z,9.60
2023-05-05T12:28:46.654Z,7.30
2023-05-05T12:31:49.840Z,9.10
2023-05-05T12:34:54.815Z,7.80
2023-05-05T12:37:58.823Z,6.00
2023-05-05T12:41:03.052Z,7.82
2023-05-05T12:44:08.670Z,8.10
2023-05-05T12:47:12.514Z,7.07
2023-05-05T12:50:15.787Z,5.28
2023-05-05T12:53:24.321Z,5.37
2023-05-05T12:56:38.287Z,10.95
2023-05-05T12:59:51.210Z,15.63
2023-05-05T13:02:54.978Z,10.30
2023-05-05T13:05:58.830Z,10.85
2023-05-05T13:09:02.445Z,6.68
2023-05-05T13:12:08.744Z,10.98
2023-05-05T13:15:13.603Z,6.20
2023-05-05T13:18:17.659Z,6.70
2023-05-05T13:21:20.567Z,9.05
2023-05-05T13:24:38.043Z,6.57
2023-05-05T13:27:49.216Z,7.57
2023-05-05T13:30:55.913Z,8.70
2023-05-05T13:33:59.041Z,5.43
2023-05-05T13:37:02.513Z,6.40
2023-05-05T13:40:06.327Z,5.25
2023-05-05T13:43:10.470Z,6.25
2023-05-05T13:46:20.015Z,7.27
2023-05-05T13:49:23.958Z,7.23
2023-05-05T13:52:27.730Z,11.32
2023-05-05T13:55:32.968Z,6.43
2023-05-05T13:58:38.098Z,7.65
2023-05-05T14:01:41.786Z,4.17
2023-05-05T14:04:46.427Z,6.50
2023-05-05T14:07:50.705Z,6.43
2023-05-05T14:10:54.273Z,6.30
2023-05-05T14:13:57.814Z,13.50
2023-05-05T14:17:01.379Z,5.50
2023-05-05T14:20:05.311Z,6.77
2023-05-05T14:23:08.932Z,9.10
2023-05-05T14:26:11.988Z,6.55
2023-05-05T14:29:19.533Z,6.15
2023-05-05T14:32:23.227Z,6.07
2023-05-05T14:35:26.789Z,5.07
2023-05-05T14:38:29.998Z,5.72
2023-05-05T14:41:33.345Z,7.90
2023-05-05T14:44:36.766Z,4.90
2023-05-05T14:47:40.155Z,5.03
2023-05-05T14:50:43.240Z,5.90
2023-05-05T14:53:46.909Z,4.85
2023-05-05T14:56:50.387Z,5.55
2023-05-05T14:59:53.829Z,4.70
2023-05-05T15:02:57.143Z,4.37
2023-05-05T15:06:00.677Z,9.77
2023-05-05T15:09:05.961Z,7.90
2023-05-05T15:12:10.918Z,5.15
2023-05-05T15:15:14.142Z,5.70
2023-05-05T15:18:17.621Z,4.87
2023-05-05T15:21:21.041Z,12.63
2023-05-05T15:24:25.454Z,5.40
2023-05-05T15:27:28.674Z,6.28
2023-05-05T15:30:32.271Z,7.25
2023-05-05T15:33:35.880Z,7.50
2023-05-05T15:36:39.405Z,7.70
2023-05-05T15:39:42.492Z,5.32
2023-05-05T15:42:45.851Z,4.57
2023-05-05T15:45:49.195Z,8.98
2023-05-05T15:48:52.608Z,7.30
2023-05-05T15:51:55.948Z,5.17
2023-05-05T15:54:59.479Z,6.05
2023-05-05T15:58:02.428Z,6.68
2023-05-05T16:01:05.953Z,9.13
2023-05-05T16:04:09.457Z,6.53
2023-05-05T16:07:12.749Z,6.20
2023-05-05T16:10:17.675Z,10.40
2023-05-05T16:13:21.014Z,7.87
2023-05-05T16:16:24.483Z,5.05
2023-05-05T16:19:28.397Z,7.37
2023-05-05T16:22:31.931Z,5.67
2023-05-05T16:25:35.883Z,5.25
2023-05-05T16:28:39.440Z,9.70
2023-05-05T16:31:42.803Z,8.45
2023-05-05T16:34:46.545Z,10.80
2023-05-05T16:37:49.616Z,7.90
2023-05-05T16:40:53.137Z,8.32
2023-05-05T16:43:56.441Z,6.45
2023-05-05T16:46:59.765Z,7.28
2023-05-05T16:50:03.310Z,8.03
2023-05-05T16:53:06.809Z,6.70
2023-05-05T16:56:13.145Z,10.10
2023-05-05T16:59:18.436Z,19.85
2023-05-05T17:02:21.801Z,6.40
2023-05-05T17:05:25.417Z,10.07
2023-05-05T17:08:36.300Z,13.90
2023-05-05T17:11:40.552Z,5.72
2023-05-05T17:14:47.872Z,8.80
2023-05-05T17:17:51.431Z,11.77
2023-05-05T17:20:54.629Z,6.37
2023-05-05T17:23:58.167Z,8.27
2023-05-05T17:27:02.121Z,8.85
2023-05-05T17:30:06.358Z,11.00
2023-05-05T17:33:09.596Z,17.77
2023-05-05T17:36:14.026Z,18.60
2023-05-05T17:39:17.806Z,19.17
2023-05-05T17:42:23.165Z,22.35
2023-05-05T17:45:27.217Z,23.45
2023-05-05T17:48:30.728Z,27.58
2023-05-05T17:51:34.445Z,17.07
2023-05-05T17:54:37.788Z,13.47
2023-05-05T17:57:40.922Z,10.98
2023-05-05T18:00:44.366Z,11.07
2023-05-05T18:03:48.017Z,9.82
2023-05-05T18:06:51.371Z,9.43
2023-05-05T18:09:55.227Z,14.23
2023-05-05T18:12:58.520Z,8.95
2023-05-05T18:16:02.061Z,7.97
2023-05-05T18:19:05.361Z,10.18
2023-05-05T18:22:08.859Z,16.63
2023-05-05T18:25:13.360Z,14.27
2023-05-05T18:28:17.304Z,11.90
2023-05-05T18:31:20.670Z,17.60
2023-05-05T18:34:24.183Z,16.55
2023-05-05T18:37:28.054Z,11.00
2023-05-05T18:40:31.773Z,12.80
2023-05-05T18:43:35.028Z,11.93
2023-05-05T18:46:38.805Z,11.05
2023-05-05T18:49:42.165Z,17.27
2023-05-05T18:52:45.684Z,19.23
2023-05-05T18:55:49.507Z,12.73
2023-05-05T18:58:52.993Z,15.05
2023-05-05T19:01:56.228Z,13.60
2023-05-05T19:04:59.806Z,14.60
2023-05-05T19:08:03.676Z,11.20
2023-05-05T19:11:07.179Z,10.43
2023-05-05T19:14:12.793Z,10.68
2023-05-05T19:17:17.787Z,15.52
2023-05-05T19:20:22.031Z,14.52
2023-05-05T19:23:26.599Z,11.63
2023-05-05T19:26:31.894Z,11.40
2023-05-05T19:29:36.274Z,12.93
2023-05-05T19:32:39.736Z,15.18
2023-05-05T19:35:44.651Z,10.43
2023-05-05T19:38:48.348Z,13.63
2023-05-05T19:41:53.184Z,10.73
2023-05-05T19:44:56.541Z,13.07
2023-05-05T19:48:03.146Z,12.10
2023-05-05T19:51:07.201Z,10.32
2023-05-05T19:54:11.233Z,9.30
2023-05-05T19:57:15.149Z,11.87
2023-05-05T20:00:19.818Z,12.13
2023-05-05T20:03:23.825Z,10.38
2023-05-05T20:06:27.268Z,11.52
2023-05-05T20:09:30.849Z,12.93
2023-05-05T20:12:34.522Z,11.57
2023-05-05T20:15:38.221Z,11.20
2023-05-05T20:18:41.486Z,12.73
2023-05-05T20:21:46.006Z,12.55
2023-05-05T20:24:49.126Z,12.80
2023-05-05T20:27:52.851Z,14.57
2023-05-05T20:30:56.262Z,12.23
2023-05-05T20:33:59.909Z,13.48
2023-05-05T20:37:03.098Z,15.25
2023-05-05T20:40:07.862Z,13.43
2023-05-05T20:43:12.081Z,12.02
2023-05-05T20:46:16.301Z,18.48
2023-05-05T20:49:19.435Z,22.83
2023-05-05T20:52:22.822Z,24.08
2023-05-05T20:55:26.409Z,19.63
2023-05-05T20:58:30.322Z,17.73
2023-05-05T21:01:34.655Z,19.37
2023-05-05T21:04:38.256Z,17.60
2023-05-05T21:07:41.624Z,16.98
2023-05-05T21:10:45.067Z,17.70
2023-05-05T21:13:48.226Z,20.77
2023-05-05T21:16:52.109Z,19.08
2023-05-05T21:19:56.289Z,19.58
2023-05-05T21:22:59.692Z,19.20
2023-05-05T21:26:03.172Z,21.20
2023-05-05T21:29:06.916Z,16.15
2023-05-05T21:32:11.855Z,19.62
2023-05-05T21:35:15.275Z,19.90
2023-05-05T21:38:18.400Z,15.93
2023-05-05T21:41:23.341Z,21.03
2023-05-05T21:44:28.335Z,17.70
2023-05-05T21:47:31.706Z,20.80
2023-05-05T21:50:36.703Z,16.87
2023-05-05T21:53:40.869Z,20.30
2023-05-05T21:56:44.200Z,23.03
2023-05-05T21:59:47.434Z,15.75
2023-05-05T22:02:50.682Z,18.20
2023-05-05T22:05:55.496Z,17.87
2023-05-05T22:08:58.597Z,17.58
2023-05-05T22:12:02.664Z,15.67
2023-05-05T22:15:07.047Z,19.23
2023-05-05T22:18:10.714Z,18.75
2023-05-05T22:21:14.175Z,18.35
2023-05-05T22:24:17.556Z,21.05
2023-05-05T22:27:20.485Z,17.27
2023-05-05T22:30:23.860Z,19.58
2023-05-05T22:33:27.351Z,20.08
2023-05-05T22:36:31.563Z,19.98
2023-05-05T22:39:35.031Z,19.80
2023-05-05T22:42:38.696Z,17.95
2023-05-05T22:45:42.223Z,17.42
2023-05-05T22:48:46.247Z,16.85
2023-05-05T22:51:49.342Z,17.55
2023-05-05T22:54:54.004Z,17.40
2023-05-05T22:57:57.215Z,16.77
2023-05-05T23:01:01.667Z,23.35
2023-05-05T23:04:05.153Z,22.05
2023-05-05T23:07:08.482Z,19.37
2023-05-05T23:10:12.004Z,19.77
2023-05-05T23:13:15.436Z,20.60
2023-05-05T23:16:19.348Z,20.75
2023-05-05T23:19:24.255Z,18.17
2023-05-05T23:22:27.697Z,18.48
2023-05-05T23:25:31.177Z,20.48
2023-05-05T23:28:34.238Z,20.20
2023-05-05T23:31:37.749Z,18.85
2023-05-05T23:34:40.885Z,19.77
2023-05-05T23:37:44.325Z,18.27
2023-05-05T23:40:47.758Z,22.20
2023-05-05T23:43:51.504Z,17.37
2023-05-05T23:46:54.716Z,17.48
2023-05-05T23:49:58.132Z,18.23
2023-05-05T23:53:01.268Z,23.90
2023-05-05T23:56:05.205Z,21.17
2023-05-05T23:59:08.381Z,21.42
